createdAt,value
2023-04-02T00:00:04.009Z,0.92
2023-04-02T00:00:13.990Z,0.92
2023-04-02T00:00:34.001Z,0.92
2023-04-02T00:00:43.990Z,0.92
2023-04-02T00:00:54.005Z,0.92
2023-04-02T00:01:04.004Z,0.95
2023-04-02T00:01:14.013Z,0.94
2023-04-02T00:01:23.997Z,0.95
2023-04-02T00:01:33.993Z,0.95
2023-04-02T00:01:44.038Z,0.92
2023-04-02T00:02:04.015Z,0.91
2023-04-02T00:02:14.097Z,0.91
2023-04-02T00:02:24.009Z,0.92
2023-04-02T00:02:34.159Z,0.92
2023-04-02T00:02:44.020Z,0.91
2023-04-02T00:02:54.122Z,0.91
2023-04-02T00:03:04.045Z,0.92
2023-04-02T00:03:14.106Z,0.90
2023-04-02T00:03:24.068Z,0.91
2023-04-02T00:03:44.131Z,0.94
2023-04-02T00:03:54.313Z,0.94
2023-04-02T00:04:04.048Z,0.94
2023-04-02T00:04:14.198Z,0.94
2023-04-02T00:04:24.047Z,0.94
2023-04-02T00:04:34.010Z,0.94
2023-04-02T00:04:44.019Z,0.94
2023-04-02T00:05:04.017Z,0.91
2023-04-02T00:05:14.020Z,0.90
2023-04-02T00:05:24.032Z,0.90
2023-04-02T00:05:34.318Z,0.88
2023-04-02T00:05:44.015Z,0.90
2023-04-02T00:05:54.018Z,0.91
2023-04-02T00:06:04.015Z,0.90
2023-04-02T00:06:14.023Z,0.91
2023-04-02T00:06:34.038Z,0.92
2023-04-02T00:06:44.023Z,0.91
2023-04-02T00:06:54.017Z,0.92
2023-04-02T00:07:04.019Z,0.91
2023-04-02T00:07:14.019Z,0.94
2023-04-02T00:07:24.017Z,0.92
2023-04-02T00:07:34.025Z,0.91
2023-04-02T00:07:44.026Z,0.91
2023-04-02T00:07:54.029Z,0.91
2023-04-02T00:08:04.033Z,0.90
2023-04-02T00:08:14.021Z,0.88
2023-04-02T00:08:24.039Z,0.88
2023-04-02T00:08:34.026Z,0.86
2023-04-02T00:08:44.027Z,0.84
2023-04-02T00:08:54.030Z,0.86
2023-04-02T00:09:04.034Z,0.86
2023-04-02T00:09:14.041Z,0.84
2023-04-02T00:09:24.035Z,0.83
2023-04-02T00:09:34.033Z,0.84
2023-04-02T00:09:44.042Z,0.83
2023-04-02T00:09:54.042Z,0.83
2023-04-02T00:10:04.030Z,0.82
2023-04-02T00:10:14.042Z,0.83
2023-04-02T00:10:24.035Z,0.84
2023-04-02T00:10:34.041Z,0.84
2023-04-02T00:10:44.034Z,0.84
2023-04-02T00:10:54.045Z,0.83
2023-04-02T00:11:04.044Z,0.84
2023-04-02T00:11:14.041Z,0.84
2023-04-02T00:11:34.050Z,0.84
2023-04-02T00:11:44.050Z,0.86
2023-04-02T00:11:54.042Z,0.86
2023-04-02T00:12:04.041Z,0.88
2023-04-02T00:12:14.046Z,0.84
2023-04-02T00:12:24.048Z,0.86
2023-04-02T00:12:34.072Z,0.86
2023-04-02T00:12:44.050Z,0.84
2023-04-02T00:13:04.047Z,0.84
2023-04-02T00:13:14.048Z,0.84
2023-04-02T00:13:24.042Z,0.83
2023-04-02T00:13:34.049Z,0.82
2023-04-02T00:13:44.044Z,0.82
2023-04-02T00:13:54.055Z,0.83
2023-04-02T00:14:04.047Z,0.82
2023-04-02T00:14:14.054Z,0.82
2023-04-02T00:14:24.051Z,0.83
2023-04-02T00:14:34.051Z,0.83
2023-04-02T00:14:44.049Z,0.83
2023-04-02T00:14:54.056Z,0.83
2023-04-02T00:15:04.055Z,0.83
2023-04-02T00:15:14.070Z,0.84
2023-04-02T00:15:24.077Z,0.83
2023-04-02T00:15:44.057Z,0.88
2023-04-02T00:15:54.063Z,0.86
2023-04-02T00:16:04.071Z,0.88
2023-04-02T00:16:14.095Z,0.86
2023-04-02T00:16:24.150Z,0.88
2023-04-02T00:16:34.080Z,0.88
2023-04-02T00:16:54.082Z,0.86
2023-04-02T00:17:04.061Z,0.84
2023-04-02T00:17:14.060Z,0.83
2023-04-02T00:17:24.069Z,0.82
2023-04-02T00:17:34.062Z,0.83
2023-04-02T00:17:44.066Z,0.83
2023-04-02T00:17:54.135Z,0.80
2023-04-02T00:18:04.191Z,0.80
2023-04-02T00:18:14.074Z,0.82
2023-04-02T00:18:24.119Z,0.83
2023-04-02T00:18:34.074Z,0.82
2023-04-02T00:18:44.072Z,0.80
2023-04-02T00:18:54.068Z,0.80
2023-04-02T00:19:04.067Z,0.82
2023-04-02T00:19:14.258Z,0.82
2023-04-02T00:19:24.063Z,0.80
2023-04-02T00:19:34.072Z,0.80
2023-04-02T00:19:44.074Z,0.80
2023-04-02T00:19:54.079Z,0.80
2023-04-02T00:20:04.084Z,0.82
2023-04-02T00:20:24.080Z,0.82
2023-04-02T00:20:34.087Z,0.82
2023-04-02T00:20:44.080Z,0.82
2023-04-02T00:20:54.112Z,0.82
2023-04-02T00:21:04.087Z,0.84
2023-04-02T00:21:14.094Z,0.83
2023-04-02T00:21:24.083Z,0.86
2023-04-02T00:21:34.084Z,0.84
2023-04-02T00:21:44.082Z,0.83
2023-04-02T00:22:04.085Z,0.80
2023-04-02T00:22:14.087Z,0.82
2023-04-02T00:22:24.089Z,0.82
2023-04-02T00:22:34.090Z,0.82
2023-04-02T00:22:44.106Z,0.80
2023-04-02T00:22:54.120Z,0.82
2023-04-02T00:23:04.088Z,0.80
2023-04-02T00:23:14.095Z,0.82
2023-04-02T00:23:24.095Z,0.82
2023-04-02T00:23:34.096Z,0.80
2023-04-02T00:23:44.123Z,0.79
2023-04-02T00:23:54.114Z,0.79
2023-04-02T00:24:04.115Z,0.77
2023-04-02T00:24:14.101Z,0.77
2023-04-02T00:24:24.099Z,0.77
2023-04-02T00:24:34.106Z,0.80
2023-04-02T00:24:44.099Z,0.82
2023-04-02T00:25:04.103Z,0.77
2023-04-02T00:25:14.115Z,0.77
2023-04-02T00:25:24.107Z,0.74
2023-04-02T00:25:34.253Z,0.76
2023-04-02T00:25:44.106Z,0.74
2023-04-02T00:25:54.111Z,0.74
2023-04-02T00:26:04.115Z,0.77
2023-04-02T00:26:14.146Z,0.76
2023-04-02T00:26:24.116Z,0.77
2023-04-02T00:26:34.107Z,0.76
2023-04-02T00:26:44.116Z,0.77
2023-04-02T00:26:54.123Z,0.79
2023-04-02T00:27:04.105Z,0.77
2023-04-02T00:27:24.130Z,0.79
2023-04-02T00:27:34.117Z,0.74
2023-04-02T00:27:44.113Z,0.76
2023-04-02T00:27:54.120Z,0.74
2023-04-02T00:28:04.117Z,0.76
2023-04-02T00:28:14.122Z,0.74
2023-04-02T00:28:24.114Z,0.74
2023-04-02T00:28:44.113Z,0.73
2023-04-02T00:28:54.121Z,0.72
2023-04-02T00:29:04.174Z,0.72
2023-04-02T00:29:14.147Z,0.72
2023-04-02T00:29:24.119Z,0.72
2023-04-02T00:29:34.120Z,0.70
2023-04-02T00:29:44.118Z,0.72
2023-04-02T00:29:54.147Z,0.70
2023-04-02T00:30:14.141Z,0.72
2023-04-02T00:30:24.120Z,0.72
2023-04-02T00:30:34.126Z,0.70
2023-04-02T00:30:44.141Z,0.73
2023-04-02T00:30:54.156Z,0.73
2023-04-02T00:31:04.131Z,0.73
2023-04-02T00:31:14.149Z,0.73
2023-04-02T00:31:24.161Z,0.73
2023-04-02T00:31:34.186Z,0.73
2023-04-02T00:31:54.153Z,0.72
2023-04-02T00:32:04.153Z,0.72
2023-04-02T00:32:14.159Z,0.73
2023-04-02T00:32:24.136Z,0.72
2023-04-02T00:32:34.176Z,0.73
2023-04-02T00:32:44.222Z,0.72
2023-04-02T00:32:54.181Z,0.73
2023-04-02T00:33:04.149Z,0.73
2023-04-02T00:33:14.139Z,0.73
2023-04-02T00:33:24.180Z,0.72
2023-04-02T00:33:34.140Z,0.70
2023-04-02T00:33:44.134Z,0.70
2023-04-02T00:33:54.140Z,0.70
2023-04-02T00:34:04.137Z,0.73
2023-04-02T00:34:14.137Z,0.72
2023-04-02T00:34:34.142Z,0.73
2023-04-02T00:34:44.141Z,0.73
2023-04-02T00:34:54.155Z,0.74
2023-04-02T00:35:04.147Z,0.74
2023-04-02T00:35:14.151Z,0.74
2023-04-02T00:35:24.163Z,0.74
2023-04-02T00:35:34.380Z,0.73
2023-04-02T00:35:44.180Z,0.74
2023-04-02T00:35:54.162Z,0.73
2023-04-02T00:36:04.153Z,0.73
2023-04-02T00:36:14.182Z,0.73
2023-04-02T00:36:24.152Z,0.72
2023-04-02T00:36:34.153Z,0.72
2023-04-02T00:36:44.177Z,0.72
2023-04-02T00:36:54.150Z,0.73
2023-04-02T00:37:04.152Z,0.72
2023-04-02T00:37:14.156Z,0.72
2023-04-02T00:37:24.179Z,0.72
2023-04-02T00:37:34.155Z,0.73
2023-04-02T00:37:44.161Z,0.72
2023-04-02T00:37:54.190Z,0.72
2023-04-02T00:38:04.162Z,0.73
2023-04-02T00:38:14.158Z,0.72
2023-04-02T00:38:24.161Z,0.73
2023-04-02T00:38:34.168Z,0.74
2023-04-02T00:38:54.163Z,0.73
2023-04-02T00:39:04.167Z,0.73
2023-04-02T00:39:14.167Z,0.73
2023-04-02T00:39:24.176Z,0.72
2023-04-02T00:39:34.167Z,0.72
2023-04-02T00:39:44.180Z,0.72
2023-04-02T00:39:54.167Z,0.70
2023-04-02T00:40:04.186Z,0.70
2023-04-02T00:40:14.173Z,0.68
2023-04-02T00:40:24.168Z,0.65
2023-04-02T00:40:34.170Z,0.62
2023-04-02T00:40:54.179Z,0.59
2023-04-02T00:41:04.176Z,0.59
2023-04-02T00:41:14.177Z,0.56
2023-04-02T00:41:24.181Z,0.59
2023-04-02T00:41:34.174Z,0.58
2023-04-02T00:41:44.180Z,0.58
2023-04-02T00:41:54.180Z,0.56
2023-04-02T00:42:04.179Z,0.56
2023-04-02T00:42:14.181Z,0.56
2023-04-02T00:42:24.182Z,0.53
2023-04-02T00:42:34.182Z,0.55
2023-04-02T00:42:54.189Z,0.55
2023-04-02T00:43:04.194Z,0.53
2023-04-02T00:43:14.186Z,0.53
2023-04-02T00:43:24.182Z,0.53
2023-04-02T00:43:34.180Z,0.53
2023-04-02T00:43:44.188Z,0.56
2023-04-02T00:43:54.183Z,0.55
2023-04-02T00:44:04.189Z,0.55
2023-04-02T00:44:14.192Z,0.55
2023-04-02T00:44:24.193Z,0.53
2023-04-02T00:44:34.191Z,0.53
2023-04-02T00:44:44.218Z,0.51
2023-04-02T00:44:54.179Z,0.53
2023-04-02T00:45:04.206Z,0.51
2023-04-02T00:45:14.206Z,0.53
2023-04-02T00:45:24.190Z,0.55
2023-04-02T00:45:34.404Z,0.55
2023-04-02T00:45:54.225Z,0.58
2023-04-02T00:46:04.219Z,0.56
2023-04-02T00:46:14.388Z,0.56
2023-04-02T00:46:24.385Z,0.58
2023-04-02T00:46:34.202Z,0.59
2023-04-02T00:46:44.204Z,0.58
2023-04-02T00:46:54.206Z,0.59
2023-04-02T00:47:04.205Z,0.59
2023-04-02T00:47:14.201Z,0.59
2023-04-02T00:47:34.249Z,0.61
2023-04-02T00:47:44.270Z,0.59
2023-04-02T00:47:54.257Z,0.59
2023-04-02T00:48:04.287Z,0.58
2023-04-02T00:48:14.215Z,0.56
2023-04-02T00:48:24.215Z,0.55
2023-04-02T00:48:34.252Z,0.56
2023-04-02T00:48:44.229Z,0.56
2023-04-02T00:48:54.218Z,0.55
2023-04-02T00:49:04.224Z,0.55
2023-04-02T00:49:14.244Z,0.53
2023-04-02T00:49:24.218Z,0.53
2023-04-02T00:49:34.221Z,0.56
2023-04-02T00:49:44.220Z,0.53
2023-04-02T00:49:54.221Z,0.51
2023-04-02T00:50:04.217Z,0.53
2023-04-02T00:50:24.227Z,0.55
2023-04-02T00:50:34.261Z,0.56
2023-04-02T00:50:44.221Z,0.55
2023-04-02T00:50:54.223Z,0.51
2023-04-02T00:51:04.225Z,0.51
2023-04-02T00:51:14.246Z,0.50
2023-04-02T00:51:24.226Z,0.50
2023-04-02T00:51:34.241Z,0.50
2023-04-02T00:51:44.228Z,0.50
2023-04-02T00:51:54.233Z,0.50
2023-04-02T00:52:04.232Z,0.47
2023-04-02T00:52:14.237Z,0.46
2023-04-02T00:52:24.233Z,0.50
2023-04-02T00:52:34.232Z,0.47
2023-04-02T00:52:44.233Z,0.50
2023-04-02T00:52:54.257Z,0.51
2023-04-02T00:53:04.263Z,0.50
2023-04-02T00:53:14.239Z,0.47
2023-04-02T00:53:24.267Z,0.50
2023-04-02T00:53:34.244Z,0.50
2023-04-02T00:53:44.243Z,0.50
2023-04-02T00:53:54.247Z,0.47
2023-04-02T00:54:04.267Z,0.51
2023-04-02T00:54:14.248Z,0.50
2023-04-02T00:54:24.245Z,0.47
2023-04-02T00:54:34.245Z,0.50
2023-04-02T00:54:44.255Z,0.50
2023-04-02T00:54:54.243Z,0.46
2023-04-02T00:55:04.248Z,0.47
2023-04-02T00:55:14.245Z,0.50
2023-04-02T00:55:24.259Z,0.47
2023-04-02T00:55:34.437Z,0.46
2023-04-02T00:55:44.267Z,0.47
2023-04-02T00:55:54.257Z,0.47
2023-04-02T00:56:04.249Z,0.47
2023-04-02T00:56:14.251Z,0.50
2023-04-02T00:56:24.271Z,0.50
2023-04-02T00:56:34.274Z,0.50
2023-04-02T00:56:54.275Z,0.50
2023-04-02T00:57:04.334Z,0.50
2023-04-02T00:57:14.320Z,0.47
2023-04-02T00:57:24.283Z,0.47
2023-04-02T00:57:34.314Z,0.47
2023-04-02T00:57:44.275Z,0.47
2023-04-02T00:57:54.258Z,0.50
2023-04-02T00:58:04.277Z,0.50
2023-04-02T00:58:14.266Z,0.46
2023-04-02T00:58:24.264Z,0.46
2023-04-02T00:58:34.265Z,0.45
2023-04-02T00:58:44.262Z,0.46
2023-04-02T00:58:54.268Z,0.45
2023-04-02T00:59:04.270Z,0.46
2023-04-02T00:59:14.266Z,0.45
2023-04-02T00:59:24.274Z,0.45
2023-04-02T00:59:34.268Z,0.45
2023-04-02T00:59:44.271Z,0.45
2023-04-02T00:59:54.266Z,0.45
2023-04-02T01:00:04.272Z,0.45
2023-04-02T01:00:14.273Z,0.45
2023-04-02T01:00:24.280Z,0.43
2023-04-02T01:00:34.275Z,0.45
2023-04-02T01:00:44.283Z,0.43
2023-04-02T01:00:54.272Z,0.43
2023-04-02T01:01:04.361Z,0.43
2023-04-02T01:01:14.323Z,0.43
2023-04-02T01:01:24.365Z,0.45
2023-04-02T01:01:34.328Z,0.45
2023-04-02T01:01:44.351Z,0.45
2023-04-02T01:01:54.410Z,0.46
2023-04-02T01:02:04.284Z,0.46
2023-04-02T01:02:14.314Z,0.43
2023-04-02T01:02:34.390Z,0.43
2023-04-02T01:02:44.350Z,0.43
2023-04-02T01:02:54.384Z,0.42
2023-04-02T01:03:04.489Z,0.42
2023-04-02T01:03:14.338Z,0.43
2023-04-02T01:03:24.364Z,0.43
2023-04-02T01:03:34.494Z,0.43
2023-04-02T01:03:44.399Z,0.42
2023-04-02T01:03:54.314Z,0.43
2023-04-02T01:04:04.300Z,0.43
2023-04-02T01:04:14.292Z,0.43
2023-04-02T01:04:24.288Z,0.43
2023-04-02T01:04:34.350Z,0.45
2023-04-02T01:04:44.295Z,0.45
2023-04-02T01:04:54.310Z,0.46
2023-04-02T01:05:04.304Z,0.46
2023-04-02T01:05:14.294Z,0.45
2023-04-02T01:05:24.300Z,0.45
2023-04-02T01:05:34.394Z,0.47
2023-04-02T01:05:44.313Z,0.47
2023-04-02T01:05:54.303Z,0.46
2023-04-02T01:06:04.302Z,0.46
2023-04-02T01:06:14.304Z,0.43
2023-04-02T01:06:24.313Z,0.45
2023-04-02T01:06:34.315Z,0.45
2023-04-02T01:06:44.298Z,0.45
2023-04-02T01:07:04.309Z,0.45
2023-04-02T01:07:14.296Z,0.46
2023-04-02T01:07:24.300Z,0.46
2023-04-02T01:07:34.310Z,0.46
2023-04-02T01:07:44.302Z,0.45
2023-04-02T01:07:54.303Z,0.45
2023-04-02T01:08:04.312Z,0.46
2023-04-02T01:08:14.303Z,0.46
2023-04-02T01:08:24.308Z,0.46
2023-04-02T01:08:34.302Z,0.46
2023-04-02T01:08:44.304Z,0.45
2023-04-02T01:08:54.319Z,0.42
2023-04-02T01:09:04.312Z,0.43
2023-04-02T01:09:14.319Z,0.43
2023-04-02T01:09:24.310Z,0.45
2023-04-02T01:09:34.327Z,0.45
2023-04-02T01:09:44.314Z,0.43
2023-04-02T01:09:54.306Z,0.43
2023-04-02T01:10:04.312Z,0.43
2023-04-02T01:10:14.324Z,0.43
2023-04-02T01:10:24.312Z,0.42
2023-04-02T01:10:44.321Z,0.45
2023-04-02T01:10:54.322Z,0.45
2023-04-02T01:11:04.340Z,0.46
2023-04-02T01:11:14.318Z,0.45
2023-04-02T01:11:24.327Z,0.46
2023-04-02T01:11:34.330Z,0.46
2023-04-02T01:11:44.325Z,0.46
2023-04-02T01:11:54.319Z,0.46
2023-04-02T01:12:04.335Z,0.46
2023-04-02T01:12:14.317Z,0.46
2023-04-02T01:12:34.333Z,0.45
2023-04-02T01:12:44.352Z,0.43
2023-04-02T01:12:54.322Z,0.45
2023-04-02T01:13:04.326Z,0.45
2023-04-02T01:13:14.326Z,0.43
2023-04-02T01:13:24.343Z,0.43
2023-04-02T01:13:34.329Z,0.42
2023-04-02T01:13:54.327Z,0.39
2023-04-02T01:14:04.337Z,0.42
2023-04-02T01:14:14.336Z,0.42
2023-04-02T01:14:24.340Z,0.42
2023-04-02T01:14:34.336Z,0.42
2023-04-02T01:14:44.333Z,0.42
2023-04-02T01:14:54.342Z,0.43
2023-04-02T01:15:04.341Z,0.43
2023-04-02T01:15:14.342Z,0.42
2023-04-02T01:15:24.344Z,0.43
2023-04-02T01:15:34.735Z,0.45
2023-04-02T01:15:44.359Z,0.42
2023-04-02T01:15:54.377Z,0.42
2023-04-02T01:16:04.410Z,0.40
2023-04-02T01:16:14.370Z,0.42
2023-04-02T01:16:24.475Z,0.42
2023-04-02T01:16:34.378Z,0.42
2023-04-02T01:16:44.358Z,0.43
2023-04-02T01:16:54.350Z,0.43
2023-04-02T01:17:04.351Z,0.43
2023-04-02T01:17:14.347Z,0.45
2023-04-02T01:17:34.397Z,0.45
2023-04-02T01:17:44.409Z,0.45
2023-04-02T01:17:54.461Z,0.46
2023-04-02T01:18:04.432Z,0.43
2023-04-02T01:18:14.365Z,0.45
2023-04-02T01:18:24.354Z,0.43
2023-04-02T01:18:34.363Z,0.43
2023-04-02T01:18:44.383Z,0.43
2023-04-02T01:18:54.356Z,0.45
2023-04-02T01:19:14.356Z,0.42
2023-04-02T01:19:24.362Z,0.39
2023-04-02T01:19:34.394Z,0.37
2023-04-02T01:19:44.359Z,0.37
2023-04-02T01:19:54.363Z,0.36
2023-04-02T01:20:04.364Z,0.36
2023-04-02T01:20:14.359Z,0.37
2023-04-02T01:20:24.369Z,0.36
2023-04-02T01:20:34.404Z,0.37
2023-04-02T01:20:44.371Z,0.36
2023-04-02T01:20:54.369Z,0.36
2023-04-02T01:21:04.389Z,0.36
2023-04-02T01:21:14.364Z,0.35
2023-04-02T01:21:24.401Z,0.37
2023-04-02T01:21:34.372Z,0.37
2023-04-02T01:21:54.383Z,0.39
2023-04-02T01:22:04.368Z,0.40
2023-04-02T01:22:14.371Z,0.40
2023-04-02T01:22:24.374Z,0.40
2023-04-02T01:22:34.375Z,0.40
2023-04-02T01:22:44.371Z,0.40
2023-04-02T01:22:54.375Z,0.40
2023-04-02T01:23:04.377Z,0.42
2023-04-02T01:23:14.375Z,0.42
2023-04-02T01:23:24.382Z,0.42
2023-04-02T01:23:34.394Z,0.42
2023-04-02T01:23:44.387Z,0.42
2023-04-02T01:23:54.386Z,0.37
2023-04-02T01:24:04.411Z,0.37
2023-04-02T01:24:14.398Z,0.39
2023-04-02T01:24:34.390Z,0.36
2023-04-02T01:24:44.397Z,0.36
2023-04-02T01:24:54.391Z,0.36
2023-04-02T01:25:04.401Z,0.33
2023-04-02T01:25:14.393Z,0.36
2023-04-02T01:25:24.390Z,0.35
2023-04-02T01:25:34.703Z,0.32
2023-04-02T01:25:44.386Z,0.33
2023-04-02T01:25:54.402Z,0.32
2023-04-02T01:26:14.397Z,0.33
2023-04-02T01:26:24.410Z,0.33
2023-04-02T01:26:34.401Z,0.33
2023-04-02T01:26:44.399Z,0.35
2023-04-02T01:26:54.406Z,0.35
2023-04-02T01:27:04.400Z,0.36
2023-04-02T01:27:14.414Z,0.36
2023-04-02T01:27:24.405Z,0.35
2023-04-02T01:27:34.427Z,0.35
2023-04-02T01:27:44.408Z,0.36
2023-04-02T01:27:54.416Z,0.33
2023-04-02T01:28:04.404Z,0.35
2023-04-02T01:28:14.409Z,0.33
2023-04-02T01:28:24.404Z,0.35
2023-04-02T01:28:34.410Z,0.33
2023-04-02T01:28:44.406Z,0.32
2023-04-02T01:28:54.412Z,0.32
2023-04-02T01:29:04.401Z,0.33
2023-04-02T01:29:14.405Z,0.33
2023-04-02T01:29:24.423Z,0.32
2023-04-02T01:29:34.410Z,0.29
2023-04-02T01:29:44.408Z,0.28
2023-04-02T01:29:54.427Z,0.28
2023-04-02T01:30:04.412Z,0.28
2023-04-02T01:30:14.409Z,0.32
2023-04-02T01:30:24.423Z,0.32
2023-04-02T01:30:34.415Z,0.28
2023-04-02T01:30:44.413Z,0.27
2023-04-02T01:30:54.556Z,0.25
2023-04-02T01:31:04.482Z,0.24
2023-04-02T01:31:14.474Z,0.24
2023-04-02T01:31:24.449Z,0.25
2023-04-02T01:31:34.525Z,0.24
2023-04-02T01:31:44.509Z,0.22
2023-04-02T01:31:54.422Z,0.22
2023-04-02T01:32:04.418Z,0.22
2023-04-02T01:32:14.450Z,0.24
2023-04-02T01:32:24.450Z,0.21
2023-04-02T01:32:44.454Z,0.24
2023-04-02T01:32:54.457Z,0.24
2023-04-02T01:33:04.459Z,0.22
2023-04-02T01:33:14.426Z,0.19
2023-04-02T01:33:24.439Z,0.21
2023-04-02T01:33:34.488Z,0.19
2023-04-02T01:33:44.429Z,0.19
2023-04-02T01:33:54.430Z,0.19
2023-04-02T01:34:14.432Z,0.19
2023-04-02T01:34:26.448Z,0.21
2023-04-02T01:34:34.439Z,0.21
2023-04-02T01:34:44.437Z,0.22
2023-04-02T01:34:54.445Z,0.22
2023-04-02T01:35:04.443Z,0.22
2023-04-02T01:35:14.435Z,0.21
2023-04-02T01:35:24.449Z,0.21
2023-04-02T01:35:34.726Z,0.19
2023-04-02T01:35:44.477Z,0.21
2023-04-02T01:35:54.488Z,0.18
2023-04-02T01:36:04.474Z,0.18
2023-04-02T01:36:14.463Z,0.15
2023-04-02T01:36:24.441Z,0.14
2023-04-02T01:36:34.459Z,0.14
2023-04-02T01:36:44.446Z,0.14
2023-04-02T01:36:54.446Z,0.12
2023-04-02T01:37:04.444Z,0.09
2023-04-02T01:37:14.443Z,0.09
2023-04-02T01:37:24.450Z,0.06
2023-04-02T01:37:44.450Z,0.07
2023-04-02T01:37:54.458Z,0.07
2023-04-02T01:38:04.448Z,0.09
2023-04-02T01:38:14.459Z,0.06
2023-04-02T01:38:24.452Z,0.06
2023-04-02T01:38:34.455Z,0.04
2023-04-02T01:38:44.458Z,0.07
2023-04-02T01:38:54.464Z,0.06
2023-04-02T01:39:04.455Z,0.06
2023-04-02T01:39:14.468Z,0.09
2023-04-02T01:39:24.461Z,0.07
2023-04-02T01:39:34.459Z,0.09
2023-04-02T01:39:44.462Z,0.09
2023-04-02T01:39:54.461Z,0.09
2023-04-02T01:40:04.458Z,0.09
2023-04-02T01:40:14.469Z,0.09
2023-04-02T01:40:24.467Z,0.10
2023-04-02T01:40:34.465Z,0.10
2023-04-02T01:40:44.464Z,0.12
2023-04-02T01:40:54.465Z,0.12
2023-04-02T01:41:04.464Z,0.14
2023-04-02T01:41:14.468Z,0.12
2023-04-02T01:41:24.474Z,0.12
2023-04-02T01:41:34.480Z,0.10
2023-04-02T01:41:44.475Z,0.12
2023-04-02T01:41:54.473Z,0.09
2023-04-02T01:42:04.470Z,0.10
2023-04-02T01:42:14.476Z,0.09
2023-04-02T01:42:24.490Z,0.10
2023-04-02T01:42:44.480Z,0.10
2023-04-02T01:42:54.480Z,0.09
2023-04-02T01:43:04.483Z,0.10
2023-04-02T01:43:14.487Z,0.09
2023-04-02T01:43:24.485Z,0.10
2023-04-02T01:43:34.517Z,0.10
2023-04-02T01:43:44.486Z,0.12
2023-04-02T01:43:54.521Z,0.09
2023-04-02T01:44:04.490Z,0.10
2023-04-02T01:44:14.501Z,0.10
2023-04-02T01:44:24.488Z,0.10
2023-04-02T01:44:34.515Z,0.07
2023-04-02T01:44:54.510Z,0.09
2023-04-02T01:45:04.493Z,0.10
2023-04-02T01:45:14.498Z,0.10
2023-04-02T01:45:24.504Z,0.10
2023-04-02T01:45:34.706Z,0.10
2023-04-02T01:45:44.498Z,0.12
2023-04-02T01:46:04.552Z,0.12
2023-04-02T01:46:14.504Z,0.12
2023-04-02T01:46:24.582Z,0.14
2023-04-02T01:46:34.559Z,0.14
2023-04-02T01:46:44.528Z,0.10
2023-04-02T01:46:54.531Z,0.07
2023-04-02T01:47:04.508Z,0.07
2023-04-02T01:47:14.501Z,0.09
2023-04-02T01:47:24.525Z,0.07
2023-04-02T01:47:44.558Z,0.09
2023-04-02T01:47:54.505Z,0.10
2023-04-02T01:48:04.528Z,0.10
2023-04-02T01:48:14.506Z,0.12
2023-04-02T01:48:24.519Z,0.14
2023-04-02T01:48:34.510Z,0.12
2023-04-02T01:48:44.511Z,0.10
2023-04-02T01:48:54.516Z,0.10
2023-04-02T01:49:04.511Z,0.10
2023-04-02T01:49:14.538Z,0.09
2023-04-02T01:49:24.511Z,0.06
2023-04-02T01:49:34.519Z,0.04
2023-04-02T01:49:44.512Z,0.03
2023-04-02T01:49:54.516Z,0.03
2023-04-02T01:50:04.517Z,0.03
2023-04-02T01:50:14.515Z,0.03
2023-04-02T01:50:24.519Z,0.03
2023-04-02T01:50:34.528Z,0.01
2023-04-02T01:50:44.516Z,0.01
2023-04-02T01:50:54.531Z,0.01
2023-04-02T01:51:04.519Z,0.06
2023-04-02T01:51:14.523Z,0.04
2023-04-02T01:51:24.522Z,0.03
2023-04-02T01:51:34.543Z,0.03
2023-04-02T01:51:44.527Z,0.03
2023-04-02T01:51:54.525Z,0.03
2023-04-02T01:52:04.535Z,0.01
2023-04-02T01:52:14.544Z,0.03
2023-04-02T01:52:24.531Z,0.01
2023-04-02T01:52:44.529Z,0.00
2023-04-02T01:52:54.531Z,0.00
2023-04-02T01:53:04.536Z,0.00
2023-04-02T01:53:14.534Z,0.00
2023-04-02T01:53:24.529Z,-0.01
2023-04-02T01:53:34.549Z,-0.01
2023-04-02T01:53:44.548Z,-0.01
2023-04-02T01:53:54.543Z,-0.01
2023-04-02T01:54:04.532Z,0.00
2023-04-02T01:54:14.568Z,-0.03
2023-04-02T01:54:24.536Z,-0.01
2023-04-02T01:54:44.540Z,-0.01
2023-04-02T01:54:54.542Z,-0.03
2023-04-02T01:55:04.537Z,-0.01
2023-04-02T01:55:14.550Z,-0.03
2023-04-02T01:55:24.541Z,-0.06
2023-04-02T01:55:34.772Z,-0.06
2023-04-02T01:55:44.542Z,-0.09
2023-04-02T01:55:54.543Z,-0.09
2023-04-02T01:56:04.545Z,-0.12
2023-04-02T01:56:14.563Z,-0.12
2023-04-02T01:56:24.544Z,-0.14
2023-04-02T01:56:34.576Z,-0.15
2023-04-02T01:56:44.546Z,-0.12
2023-04-02T01:56:54.578Z,-0.12
2023-04-02T01:57:04.594Z,-0.14
2023-04-02T01:57:14.630Z,-0.17
2023-04-02T01:57:24.573Z,-0.15
2023-04-02T01:57:44.554Z,-0.15
2023-04-02T01:57:54.594Z,-0.14
2023-04-02T01:58:04.551Z,-0.15
2023-04-02T01:58:14.579Z,-0.15
2023-04-02T01:58:24.558Z,-0.15
2023-04-02T01:58:34.553Z,-0.14
2023-04-02T01:58:44.554Z,-0.12
2023-04-02T01:59:04.559Z,-0.15
2023-04-02T01:59:14.561Z,-0.14
2023-04-02T01:59:24.565Z,-0.14
2023-04-02T01:59:34.571Z,-0.12
2023-04-02T01:59:44.569Z,-0.14
2023-04-02T01:59:54.569Z,-0.14
2023-04-02T02:00:04.560Z,-0.12
2023-04-02T02:00:14.572Z,-0.12
2023-04-02T02:00:24.596Z,-0.15
2023-04-02T02:00:34.636Z,-0.15
2023-04-02T02:00:44.590Z,-0.15
2023-04-02T02:00:54.641Z,-0.14
2023-04-02T02:01:04.618Z,-0.17
2023-04-02T02:01:14.615Z,-0.15
2023-04-02T02:01:24.630Z,-0.15
2023-04-02T02:01:34.587Z,-0.15
2023-04-02T02:01:44.586Z,-0.15
2023-04-02T02:01:54.591Z,-0.17
2023-04-02T02:02:04.609Z,-0.17
2023-04-02T02:02:14.666Z,-0.17
2023-04-02T02:02:24.692Z,-0.15
2023-04-02T02:02:44.642Z,-0.14
2023-04-02T02:02:54.621Z,-0.15
2023-04-02T02:03:04.692Z,-0.14
2023-04-02T02:03:14.608Z,-0.14
2023-04-02T02:03:24.585Z,-0.14
2023-04-02T02:03:34.588Z,-0.14
2023-04-02T02:03:44.588Z,-0.14
2023-04-02T02:04:04.579Z,-0.12
2023-04-02T02:04:14.622Z,-0.12
2023-04-02T02:04:24.582Z,-0.11
2023-04-02T02:04:34.600Z,-0.12
2023-04-02T02:04:44.589Z,-0.11
2023-04-02T02:04:54.595Z,-0.14
2023-04-02T02:05:04.595Z,-0.14
2023-04-02T02:05:24.595Z,-0.14
2023-04-02T02:05:34.793Z,-0.15
2023-04-02T02:05:44.654Z,-0.15
2023-04-02T02:05:54.603Z,-0.15
2023-04-02T02:06:04.598Z,-0.15
2023-04-02T02:06:14.598Z,-0.17
2023-04-02T02:06:34.607Z,-0.17
2023-04-02T02:06:44.607Z,-0.15
2023-04-02T02:06:54.595Z,-0.14
2023-04-02T02:07:04.596Z,-0.14
2023-04-02T02:07:14.600Z,-0.15
2023-04-02T02:07:24.608Z,-0.15
2023-04-02T02:07:34.603Z,-0.15
2023-04-02T02:07:44.605Z,-0.14
2023-04-02T02:07:54.610Z,-0.15
2023-04-02T02:08:04.606Z,-0.14
2023-04-02T02:08:14.611Z,-0.17
2023-04-02T02:08:24.634Z,-0.15
2023-04-02T02:08:34.671Z,-0.17
2023-04-02T02:08:44.628Z,-0.17
2023-04-02T02:08:54.613Z,-0.15
2023-04-02T02:09:04.630Z,-0.15
2023-04-02T02:09:14.616Z,-0.15
2023-04-02T02:09:24.614Z,-0.14
2023-04-02T02:09:34.607Z,-0.14
2023-04-02T02:09:44.614Z,-0.11
2023-04-02T02:09:54.612Z,-0.12
2023-04-02T02:10:04.616Z,-0.12
2023-04-02T02:10:14.612Z,-0.12
2023-04-02T02:10:24.624Z,-0.12
2023-04-02T02:10:34.625Z,-0.14
2023-04-02T02:10:44.627Z,-0.12
2023-04-02T02:10:54.617Z,-0.12
2023-04-02T02:11:04.620Z,-0.11
2023-04-02T02:11:14.625Z,-0.11
2023-04-02T02:11:24.632Z,-0.12
2023-04-02T02:11:34.632Z,-0.12
2023-04-02T02:11:44.641Z,-0.11
2023-04-02T02:11:54.622Z,-0.11
2023-04-02T02:12:14.651Z,-0.11
2023-04-02T02:12:24.637Z,-0.12
2023-04-02T02:12:34.654Z,-0.11
2023-04-02T02:12:44.630Z,-0.09
2023-04-02T02:12:54.637Z,-0.08
2023-04-02T02:13:04.637Z,-0.06
2023-04-02T02:13:14.652Z,-0.09
2023-04-02T02:13:24.663Z,-0.09
2023-04-02T02:13:44.633Z,-0.11
2023-04-02T02:13:54.653Z,-0.14
2023-04-02T02:14:04.642Z,-0.14
2023-04-02T02:14:14.640Z,-0.15
2023-04-02T02:14:24.671Z,-0.17
2023-04-02T02:14:34.642Z,-0.18
2023-04-02T02:14:44.640Z,-0.19
2023-04-02T02:14:54.639Z,-0.21
2023-04-02T02:15:04.648Z,-0.19
2023-04-02T02:15:14.658Z,-0.18
2023-04-02T02:15:24.644Z,-0.19
2023-04-02T02:15:34.792Z,-0.25
2023-04-02T02:15:44.652Z,-0.22
2023-04-02T02:15:54.679Z,-0.22
2023-04-02T02:16:04.661Z,-0.21
2023-04-02T02:16:14.674Z,-0.19
2023-04-02T02:16:24.741Z,-0.19
2023-04-02T02:16:34.728Z,-0.18
2023-04-02T02:16:44.742Z,-0.18
2023-04-02T02:16:54.653Z,-0.17
2023-04-02T02:17:04.662Z,-0.18
2023-04-02T02:17:14.668Z,-0.18
2023-04-02T02:17:24.696Z,-0.18
2023-04-02T02:17:44.733Z,-0.19
2023-04-02T02:17:54.716Z,-0.18
2023-04-02T02:18:04.691Z,-0.17
2023-04-02T02:18:14.660Z,-0.17
2023-04-02T02:18:24.706Z,-0.15
2023-04-02T02:18:34.669Z,-0.15
2023-04-02T02:18:44.662Z,-0.17
2023-04-02T02:19:04.677Z,-0.14
2023-04-02T02:19:14.666Z,-0.14
2023-04-02T02:19:24.676Z,-0.12
2023-04-02T02:19:34.671Z,-0.11
2023-04-02T02:19:44.673Z,-0.09
2023-04-02T02:19:54.664Z,-0.11
2023-04-02T02:20:04.663Z,-0.09
2023-04-02T02:20:24.672Z,-0.11
2023-04-02T02:20:34.671Z,-0.09
2023-04-02T02:20:44.670Z,-0.11
2023-04-02T02:20:54.667Z,-0.12
2023-04-02T02:21:04.683Z,-0.12
2023-04-02T02:21:14.695Z,-0.11